Time;durP1;ratioP1;P1;durP2;ratioP2;P2;SDS_P1;SDS_P2;PMS_P1;PMS_P2;Temp;Humidity;BMP_temperature;BMP_pressure;BME280_temperature;BME280_humidity;BME280_pressure;Samples;Min_cycle;Max_cycle;Signal;HPM_P1;HPM_P2
2022/10/13 00:01:10;;;;;;;;;;;;;;;;;;4903289;29;19954;-91
2022/10/13 00:03:36;;;;;;;;;;;;;;;;;;4903096;29;19923;-91
2022/10/13 00:06:03;;;;;;;;;;;;;;;;;;4933880;29;19919;-91
2022/10/13 00:08:29;;;;;;;;;;;;;;;;;;4938417;29;19933;-93
2022/10/13 00:10:54;;;;;;;;;;;;;;;;;;4921120;29;19915;-91
2022/10/13 00:13:19;;;;;;;;;;;;;;;;;;4922131;29;19930;-92
2022/10/13 00:15:46;;;;;;;;;;;;;;;;;;4939612;29;19923;-89
2022/10/13 00:18:12;;;;;;;;;;;;;;;;;;4938680;29;19919;-91
2022/10/13 00:20:47;;;;;;;;;;;;;;;;;;4939363;28;19925;-89
2022/10/13 00:23:13;;;;;;;;;;;;;;;;;;4950956;29;19930;-89
2022/10/13 00:25:43;;;;;;;;;;;;;;;;;;4940350;29;19926;-90
2022/10/13 00:28:08;;;;;;;;;;;;;;;;;;4957388;28;19926;-89
2022/10/13 00:30:34;;;;;;;;;;;;;;;;;;4940406;29;20290;-90
2022/10/13 00:33:00;;;;;;;;;;;;;;;;;;4940265;29;19918;-91
2022/10/13 00:35:25;;;;;;;;;;;;;;;;;;4957950;28;19919;-90
2022/10/13 00:37:52;;;;;;;;;;;;;;;;;;4940885;29;20017;-91
2022/10/13 00:40:17;;;;;;;;;;;;;;;;;;4940615;29;19973;-90
2022/10/13 00:42:43;;;;;;;;;;;;;;;;;;4957513;28;19918;-93
2022/10/13 00:45:18;;;;;;;;;;;;;;;;;;4940326;29;19926;-93
2022/10/13 00:47:45;;;;;;;;;;;;;;;;;;4940194;29;19997;-92
2022/10/13 00:50:13;;;;;;;;;;;;;;;;;;4940430;29;20296;-92
2022/10/13 00:52:40;;;;;;;;;;;;;;;;;;4941280;29;20426;-93
2022/10/13 00:55:07;;;;;;;;;;;;;;;;;;4940096;29;19919;-94
2022/10/13 00:57:32;;;;;;;;;;;;;;;;;;4958128;28;19922;-94
2022/10/13 00:59:58;;;;;;;;;;;;;;;;;;4939951;29;19918;-93
2022/10/13 01:02:27;;;;;;;;;;;;;;;;;;4957265;28;19922;-92
2022/10/13 01:04:52;;;;;;;;;;;;;;;;;;4940336;29;19923;-93
2022/10/13 01:07:19;;;;;;;;;;;;;;;;;;4957184;29;20290;-92
2022/10/13 01:09:46;;;;;;;;;;;;;;;;;;4939906;29;20389;-94
2022/10/13 01:12:36;;;;;;;;;;;;;;;;;;4957237;28;19925;-93
2022/10/13 01:15:07;;;;;;;;;;;;;;;;;;4936543;28;19942;-93
2022/10/13 01:17:43;;;;;;;;;;;;;;;;;;4938905;29;20016;-94
2022/10/13 01:20:08;;;;;;;;;;;;;;;;;;4939213;29;20017;-93
2022/10/13 01:22:43;;;;;;;;;;;;;;;;;;4939205;29;19962;-92
2022/10/13 01:25:17;;;;;;;;;;;;;;;;;;4957447;29;19918;-92
2022/10/13 01:27:56;;;;;;;;;;;;;;;;;;4939460;29;19918;-91
2022/10/13 01:30:22;;;;;;;;;;;;;;;;;;4956667;29;19918;-94
2022/10/13 01:32:58;;;;;;;;;;;;;;;;;;4939152;29;20366;-92
2022/10/13 01:35:27;;;;;;;;;;;;;;;;;;4939612;29;19961;-94
2022/10/13 01:38:19;;;;;;;;;;;;;;;;;;4956730;29;20437;-91
2022/10/13 01:41:07;;;;;;;;;;;;;;;;;;4953544;29;19919;-93
2022/10/13 01:43:44;;;;;;;;;;;;;;;;;;4921069;29;20378;-92
2022/10/13 01:46:12;;;;;;;;;;;;;;;;;;4939194;29;20381;-93
2022/10/13 01:48:39;;;;;;;;;;;;;;;;;;4939342;29;19919;-92
2022/10/13 01:51:06;;;;;;;;;;;;;;;;;;4939369;29;20025;-92
2022/10/13 01:53:33;;;;;;;;;;;;;;;;;;4956620;29;19922;-92
2022/10/13 01:55:59;;;;;;;;;;;;;;;;;;4956028;29;19957;-91
2022/10/13 01:58:26;;;;;;;;;;;;;;;;;;4938732;29;20005;-91
2022/10/13 02:01:02;;;;;;;;;;;;;;;;;;4955868;28;20413;-90
2022/10/13 02:03:47;;;;;;;;;;;;;;;;;;4938786;29;19951;-92
2022/10/13 02:06:21;;;;;;;;;;;;;;;;;;4925878;28;20009;-92
2022/10/13 02:08:46;;;;;;;;;;;;;;;;;;4938763;29;20329;-91
2022/10/13 02:11:18;;;;;;;;;;;;;;;;;;4938780;29;20062;-92
2022/10/13 02:13:53;;;;;;;;;;;;;;;;;;4955814;28;20394;-93
2022/10/13 02:16:22;;;;;;;;;;;;;;;;;;4955771;29;19926;-91
2022/10/13 02:18:48;;;;;;;;;;;;;;;;;;4956258;28;19918;-91
2022/10/13 02:21:14;;;;;;;;;;;;;;;;;;4955582;28;19938;-90
2022/10/13 02:23:41;;;;;;;;;;;;;;;;;;4955690;28;19937;-91
2022/10/13 02:26:07;;;;;;;;;;;;;;;;;;4955317;28;19940;-91
2022/10/13 02:28:35;;;;;;;;;;;;;;;;;;4936183;29;19925;-91
2022/10/13 02:31:00;;;;;;;;;;;;;;;;;;4955614;28;20413;-93
2022/10/13 02:33:26;;;;;;;;;;;;;;;;;;4955527;28;20013;-92
2022/10/13 02:35:51;;;;;;;;;;;;;;;;;;4938238;29;19924;-91
2022/10/13 02:38:17;;;;;;;;;;;;;;;;;;4955785;29;19915;-91
2022/10/13 02:40:42;;;;;;;;;;;;;;;;;;4938971;29;19997;-92
2022/10/13 02:43:08;;;;;;;;;;;;;;;;;;4938728;29;20294;-91
2022/10/13 02:45:33;;;;;;;;;;;;;;;;;;4955743;28;19915;-92
2022/10/13 02:47:58;;;;;;;;;;;;;;;;;;4955676;29;20017;-91
2022/10/13 02:50:24;;;;;;;;;;;;;;;;;;4938324;29;19973;-92
2022/10/13 02:52:49;;;;;;;;;;;;;;;;;;4962181;28;19910;-91
2022/10/13 02:55:15;;;;;;;;;;;;;;;;;;4971306;28;19997;-92
2022/10/13 02:57:43;;;;;;;;;;;;;;;;;;4978514;28;19923;-90
2022/10/13 03:00:08;;;;;;;;;;;;;;;;;;4999828;23;19910;-92
2022/10/13 03:02:34;;;;;;;;;;;;;;;;;;4977290;28;19929;-90
2022/10/13 03:04:59;;;;;;;;;;;;;;;;;;4983017;28;19929;-91
2022/10/13 03:07:25;;;;;;;;;;;;;;;;;;4976575;28;20366;-92
2022/10/13 03:09:50;;;;;;;;;;;;;;;;;;4975155;28;20373;-89
2022/10/13 03:12:16;;;;;;;;;;;;;;;;;;4974983;28;20298;-91
2022/10/13 03:14:42;;;;;;;;;;;;;;;;;;4974790;28;19973;-90
2022/10/13 03:17:07;;;;;;;;;;;;;;;;;;4974718;28;19922;-91
2022/10/13 03:19:33;;;;;;;;;;;;;;;;;;4957750;28;19918;-91
2022/10/13 03:21:58;;;;;;;;;;;;;;;;;;4974760;28;19918;-92
2022/10/13 03:24:24;;;;;;;;;;;;;;;;;;4957230;28;20385;-92
2022/10/13 03:26:49;;;;;;;;;;;;;;;;;;4957313;28;20777;-93
2022/10/13 03:29:19;;;;;;;;;;;;;;;;;;4974558;28;19919;-91
2022/10/13 03:31:45;;;;;;;;;;;;;;;;;;4957241;28;19918;-93
2022/10/13 03:34:11;;;;;;;;;;;;;;;;;;4974809;28;19918;-92
2022/10/13 03:36:37;;;;;;;;;;;;;;;;;;4957649;28;19954;-92
2022/10/13 03:39:02;;;;;;;;;;;;;;;;;;4957823;28;19953;-91
2022/10/13 03:41:28;;;;;;;;;;;;;;;;;;4978114;28;19918;-90
2022/10/13 03:43:53;;;;;;;;;;;;;;;;;;4978201;28;19924;-92
2022/10/13 03:46:19;;;;;;;;;;;;;;;;;;4960674;28;19958;-92
2022/10/13 03:48:44;;;;;;;;;;;;;;;;;;4978016;28;20005;-89
2022/10/13 03:51:11;;;;;;;;;;;;;;;;;;4977847;28;19922;-91
2022/10/13 03:53:37;;;;;;;;;;;;;;;;;;4977652;28;19919;-90
2022/10/13 03:56:03;;;;;;;;;;;;;;;;;;4977531;28;20248;-91
2022/10/13 03:58:29;;;;;;;;;;;;;;;;;;4977515;28;19914;-91
2022/10/13 04:00:55;;;;;;;;;;;;;;;;;;4960160;28;19929;-93
2022/10/13 04:03:21;;;;;;;;;;;;;;;;;;4977678;28;20293;-92
2022/10/13 04:05:46;;;;;;;;;;;;;;;;;;4977395;28;19922;-91
2022/10/13 04:08:12;;;;;;;;;;;;;;;;;;4977718;28;19918;-91
2022/10/13 04:10:37;;;;;;;;;;;;;;;;;;4977710;28;19914;-93
2022/10/13 04:13:04;;;;;;;;;;;;;;;;;;4960279;28;20341;-92
2022/10/13 04:15:30;;;;;;;;;;;;;;;;;;4960381;28;19937;-91
2022/10/13 04:17:55;;;;;;;;;;;;;;;;;;4960029;28;20371;-93
2022/10/13 04:20:21;;;;;;;;;;;;;;;;;;4960035;28;19965;-91
2022/10/13 04:22:46;;;;;;;;;;;;;;;;;;4977296;28;20004;-94
2022/10/13 04:25:11;;;;;;;;;;;;;;;;;;4977414;28;20436;-92
2022/10/13 04:27:38;;;;;;;;;;;;;;;;;;4960211;28;19918;-91
2022/10/13 04:30:07;;;;;;;;;;;;;;;;;;4980520;28;19918;-90
2022/10/13 04:32:32;;;;;;;;;;;;;;;;;;4977048;28;19918;-91
2022/10/13 04:34:58;;;;;;;;;;;;;;;;;;4977170;28;19945;-90
2022/10/13 04:37:23;;;;;;;;;;;;;;;;;;4959683;28;20282;-92
2022/10/13 04:39:49;;;;;;;;;;;;;;;;;;4977076;28;19918;-93
2022/10/13 04:42:14;;;;;;;;;;;;;;;;;;4960186;28;19918;-91
2022/10/13 04:44:39;;;;;;;;;;;;;;;;;;4959724;28;19922;-92
2022/10/13 04:47:05;;;;;;;;;;;;;;;;;;4959150;28;19918;-92
2022/10/13 04:49:30;;;;;;;;;;;;;;;;;;4976923;28;19925;-91
2022/10/13 04:51:56;;;;;;;;;;;;;;;;;;4959343;28;20034;-92
2022/10/13 04:54:21;;;;;;;;;;;;;;;;;;4976878;28;19919;-92
2022/10/13 04:56:47;;;;;;;;;;;;;;;;;;4959410;28;19918;-93
2022/10/13 04:59:12;;;;;;;;;;;;;;;;;;4959468;28;19922;-90
2022/10/13 05:01:38;;;;;;;;;;;;;;;;;;4976324;28;19975;-93
2022/10/13 05:04:03;;;;;;;;;;;;;;;;;;4976499;28;20378;-92
2022/10/13 05:06:30;;;;;;;;;;;;;;;;;;4973981;28;19971;-92
2022/10/13 05:08:56;;;;;;;;;;;;;;;;;;4971392;28;19929;-91
2022/10/13 05:11:23;;;;;;;;;;;;;;;;;;4975276;28;19940;-93
2022/10/13 05:13:48;;;;;;;;;;;;;;;;;;4958844;28;19922;-92
2022/10/13 05:16:14;;;;;;;;;;;;;;;;;;4976135;28;19918;-92
2022/10/13 05:18:40;;;;;;;;;;;;;;;;;;4959027;28;19922;-91
2022/10/13 05:21:06;;;;;;;;;;;;;;;;;;4967561;28;19949;-92
2022/10/13 05:23:31;;;;;;;;;;;;;;;;;;4955346;29;19982;-91
2022/10/13 05:25:59;;;;;;;;;;;;;;;;;;4955424;29;19954;-92
2022/10/13 05:28:25;;;;;;;;;;;;;;;;;;4955973;29;19966;-92
2022/10/13 05:30:50;;;;;;;;;;;;;;;;;;4939682;29;20004;-92
2022/10/13 05:33:16;;;;;;;;;;;;;;;;;;4956467;28;19992;-93
2022/10/13 05:35:41;;;;;;;;;;;;;;;;;;4955237;29;19993;-94
2022/10/13 05:38:07;;;;;;;;;;;;;;;;;;4956421;28;19922;-93
2022/10/13 05:40:32;;;;;;;;;;;;;;;;;;4955202;29;20389;-92
2022/10/13 05:42:57;;;;;;;;;;;;;;;;;;4954963;29;19925;-92
2022/10/13 05:45:23;;;;;;;;;;;;;;;;;;4954896;29;20017;-92
2022/10/13 05:47:48;;;;;;;;;;;;;;;;;;4955317;29;19918;-91
2022/10/13 05:50:14;;;;;;;;;;;;;;;;;;4956681;28;19918;-92
2022/10/13 05:52:40;;;;;;;;;;;;;;;;;;4958121;28;19972;-93
2022/10/13 05:55:07;;;;;;;;;;;;;;;;;;4955889;29;19925;-92
2022/10/13 05:57:35;;;;;;;;;;;;;;;;;;4956263;29;20016;-93
2022/10/13 06:00:12;;;;;;;;;;;;;;;;;;4956164;28;20405;-91
2022/10/13 06:02:43;;;;;;;;;;;;;;;;;;4938905;29;19918;-91
2022/10/13 06:05:12;;;;;;;;;;;;;;;;;;4955927;29;20406;-91
2022/10/13 06:07:38;;;;;;;;;;;;;;;;;;4938536;29;20381;-92
2022/10/13 06:10:03;;;;;;;;;;;;;;;;;;4946535;28;19917;-90
2022/10/13 06:12:29;;;;;;;;;;;;;;;;;;4995455;28;19918;-90
2022/10/13 06:14:54;;;;;;;;;;;;;;;;;;4978099;28;19921;-92
2022/10/13 06:17:20;;;;;;;;;;;;;;;;;;4977844;28;20380;-92
2022/10/13 06:19:45;;;;;;;;;;;;;;;;;;4994766;28;19922;-94
2022/10/13 06:22:10;;;;;;;;;;;;;;;;;;4979570;28;19944;-91
2022/10/13 06:24:36;;;;;;;;;;;;;;;;;;4977439;28;19918;-93
2022/10/13 06:27:01;;;;;;;;;;;;;;;;;;4995724;28;20293;-92
2022/10/13 06:29:27;;;;;;;;;;;;;;;;;;4998084;28;20281;-92
2022/10/13 06:31:52;;;;;;;;;;;;;;;;;;4946076;28;19922;-93
2022/10/13 06:34:18;;;;;;;;;;;;;;;;;;4959110;28;19919;-91
2022/10/13 06:36:43;;;;;;;;;;;;;;;;;;4959069;28;19918;-91
2022/10/13 06:39:09;;;;;;;;;;;;;;;;;;4938673;29;19919;-88
2022/10/13 06:41:34;;;;;;;;;;;;;;;;;;4956972;28;20363;-92
2022/10/13 06:44:01;;;;;;;;;;;;;;;;;;4939589;29;20439;-88
2022/10/13 06:46:27;;;;;;;;;;;;;;;;;;4956150;28;20385;-90
2022/10/13 06:48:52;;;;;;;;;;;;;;;;;;4955744;29;19919;-92
2022/10/13 06:51:18;;;;;;;;;;;;;;;;;;4940084;29;19922;-92
2022/10/13 06:53:43;;;;;;;;;;;;;;;;;;4940666;29;19927;-93
2022/10/13 06:56:09;;;;;;;;;;;;;;;;;;4974483;28;19978;-89
2022/10/13 06:58:35;;;;;;;;;;;;;;;;;;4981578;28;19923;-91
2022/10/13 07:01:04;;;;;;;;;;;;;;;;;;4982429;28;19925;-91
2022/10/13 07:03:29;;;;;;;;;;;;;;;;;;4979077;28;19928;-89
2022/10/13 07:05:58;;;;;;;;;;;;;;;;;;4981597;28;20559;-93
2022/10/13 07:08:24;;;;;;;;;;;;;;;;;;4958778;28;19973;-91
2022/10/13 07:10:50;;;;;;;;;;;;;;;;;;4975172;28;19934;-92
2022/10/13 07:13:15;;;;;;;;;;;;;;;;;;4958489;28;19918;-92
2022/10/13 07:15:41;;;;;;;;;;;;;;;;;;4977569;28;20017;-92
2022/10/13 07:18:06;;;;;;;;;;;;;;;;;;4978434;28;20010;-91
2022/10/13 07:20:32;;;;;;;;;;;;;;;;;;4978458;28;19926;-91
2022/10/13 07:22:57;;;;;;;;;;;;;;;;;;4960748;28;19918;-92
2022/10/13 07:25:23;;;;;;;;;;;;;;;;;;4978036;28;19918;-90
2022/10/13 07:27:48;;;;;;;;;;;;;;;;;;4960622;28;20016;-91
2022/10/13 07:30:14;;;;;;;;;;;;;;;;;;4978044;28;19918;-90
2022/10/13 07:32:41;;;;;;;;;;;;;;;;;;4977946;28;19930;-92
2022/10/13 07:35:10;;;;;;;;;;;;;;;;;;4977735;28;19957;-93
2022/10/13 07:37:36;;;;;;;;;;;;;;;;;;4960346;28;19929;-92
2022/10/13 07:40:02;;;;;;;;;;;;;;;;;;4960574;28;19918;-92
2022/10/13 07:42:28;;;;;;;;;;;;;;;;;;4960543;28;20344;-93
2022/10/13 07:44:53;;;;;;;;;;;;;;;;;;4960067;28;20021;-93
2022/10/13 07:47:19;;;;;;;;;;;;;;;;;;4959219;28;19926;-91
2022/10/13 07:49:44;;;;;;;;;;;;;;;;;;4976878;28;20377;-91
2022/10/13 07:52:10;;;;;;;;;;;;;;;;;;4954781;28;19930;-93
2022/10/13 07:54:35;;;;;;;;;;;;;;;;;;4958418;28;19981;-92
2022/10/13 07:57:00;;;;;;;;;;;;;;;;;;4975422;28;19929;-93
2022/10/13 07:59:26;;;;;;;;;;;;;;;;;;4957208;28;19930;-91
2022/10/13 08:01:51;;;;;;;;;;;;;;;;;;4976208;28;20453;-93
2022/10/13 08:04:17;;;;;;;;;;;;;;;;;;4976465;28;20004;-93
2022/10/13 08:06:45;;;;;;;;;;;;;;;;;;4976293;28;19973;-92
2022/10/13 08:09:11;;;;;;;;;;;;;;;;;;4976730;28;19926;-94
2022/10/13 08:11:37;;;;;;;;;;;;;;;;;;4959647;28;19925;-92
2022/10/13 08:14:02;;;;;;;;;;;;;;;;;;4977669;28;20005;-90
2022/10/13 08:16:28;;;;;;;;;;;;;;;;;;4960170;28;19914;-91
2022/10/13 08:18:55;;;;;;;;;;;;;;;;;;4976945;28;19925;-91
2022/10/13 08:21:21;;;;;;;;;;;;;;;;;;4977047;28;19922;-93
2022/10/13 08:23:47;;;;;;;;;;;;;;;;;;4959774;28;19914;-92
2022/10/13 08:26:20;;;;;;;;;;;;;;;;;;4959000;28;19922;-92
2022/10/13 08:28:46;;;;;;;;;;;;;;;;;;4977048;28;20005;-93
2022/10/13 08:31:11;;;;;;;;;;;;;;;;;;4976976;28;19956;-94
2022/10/13 08:33:37;;;;;;;;;;;;;;;;;;4959433;28;19922;-93
2022/10/13 08:36:03;;;;;;;;;;;;;;;;;;4959396;28;19922;-92
2022/10/13 08:38:28;;;;;;;;;;;;;;;;;;4959234;28;20378;-93
2022/10/13 08:40:54;;;;;;;;;;;;;;;;;;4976708;28;19925;-92
2022/10/13 08:43:21;;;;;;;;;;;;;;;;;;4976536;28;19925;-92
2022/10/13 08:45:48;;;;;;;;;;;;;;;;;;4959465;28;20027;-92
2022/10/13 08:48:16;;;;;;;;;;;;;;;;;;4976653;28;20442;-93
2022/10/13 08:50:43;;;;;;;;;;;;;;;;;;4976350;28;19918;-94
2022/10/13 08:53:12;;;;;;;;;;;;;;;;;;4959248;28;20401;-94
2022/10/13 08:55:43;;;;;;;;;;;;;;;;;;4976584;28;20036;-89
2022/10/13 08:58:13;;;;;;;;;;;;;;;;;;4959296;28;19965;-90
2022/10/13 09:00:40;;;;;;;;;;;;;;;;;;4976178;28;19929;-88
2022/10/13 09:03:25;;;;;;;;;;;;;;;;;;4958920;28;19922;-89
2022/10/13 09:06:11;;;;;;;;;;;;;;;;;;4976151;28;19922;-88
2022/10/13 09:08:45;;;;;;;;;;;;;;;;;;4962543;28;20374;-88
2022/10/13 09:11:11;;;;;;;;;;;;;;;;;;4976688;28;19922;-89
2022/10/13 09:13:37;;;;;;;;;;;;;;;;;;4958842;28;20602;-89
2022/10/13 09:16:02;;;;;;;;;;;;;;;;;;4975768;28;19922;-89
2022/10/13 09:18:30;;;;;;;;;;;;;;;;;;4958790;28;19968;-89
2022/10/13 09:21:11;;;;;;;;;;;;;;;;;;4976196;28;20004;-89
2022/10/13 09:23:36;;;;;;;;;;;;;;;;;;4959248;28;19945;-87
2022/10/13 09:26:06;;;;;;;;;;;;;;;;;;4975553;28;20389;-88
2022/10/13 09:28:31;;;;;;;;;;;;;;;;;;4976057;28;19976;-88
2022/10/13 09:31:17;;;;;;;;;;;;;;;;;;4958293;28;19914;-87
2022/10/13 09:33:44;;;;;;;;;;;;;;;;;;4944806;28;19969;-86
2022/10/13 09:36:10;;;;;;;;;;;;;;;;;;4975545;28;19922;-88
2022/10/13 09:38:36;;;;;;;;;;;;;;;;;;4957508;28;19918;-88
2022/10/13 09:41:11;;;;;;;;;;;;;;;;;;4958757;28;19936;-88
2022/10/13 09:43:45;;;;;;;;;;;;;;;;;;4958641;28;19922;-90
2022/10/13 09:46:16;;;;;;;;;;;;;;;;;;4958684;28;20374;-91
2022/10/13 09:48:46;;;;;;;;;;;;;;;;;;4975377;28;19918;-89
2022/10/13 09:51:30;;;;;;;;;;;;;;;;;;4975376;28;19918;-90
2022/10/13 09:53:55;;;;;;;;;;;;;;;;;;4957988;28;20358;-89
2022/10/13 09:56:31;;;;;;;;;;;;;;;;;;4957727;28;19918;-90
2022/10/13 09:59:02;;;;;;;;;;;;;;;;;;4958095;28;19926;-88
2022/10/13 10:01:31;;;;;;;;;;;;;;;;;;4975637;28;20005;-90
2022/10/13 10:03:57;;;;;;;;;;;;;;;;;;4958126;28;19926;-88
2022/10/13 10:06:22;;;;;;;;;;;;;;;;;;4975089;28;20012;-91
2022/10/13 10:08:57;;;;;;;;;;;;;;;;;;4975052;28;19918;-91
2022/10/13 10:11:28;;;;;;;;;;;;;;;;;;4974933;28;19918;-92
2022/10/13 10:13:54;;;;;;;;;;;;;;;;;;4957426;28;19964;-91
2022/10/13 10:16:30;;;;;;;;;;;;;;;;;;4957515;28;20401;-90
2022/10/13 10:19:11;;;;;;;;;;;;;;;;;;4957850;28;19918;-91
2022/10/13 10:21:46;;;;;;;;;;;;;;;;;;4975010;28;20013;-88
2022/10/13 10:24:11;;;;;;;;;;;;;;;;;;4957719;28;19922;-88
2022/10/13 10:26:40;;;;;;;;;;;;;;;;;;4974791;28;19918;-89
2022/10/13 10:29:32;;;;;;;;;;;;;;;;;;4974189;28;20211;-89
2022/10/13 10:32:03;;;;;;;;;;;;;;;;;;4958596;28;19918;-89
2022/10/13 10:37:13;;;;;;;;;;;;;;;;;;4954365;23;19927;-91
2022/10/13 10:39:50;;;;;;;;;;;;;;;;;;4936704;29;20305;-90
2022/10/13 10:42:24;;;;;;;;;;;;;;;;;;4919641;29;20057;-89
2022/10/13 10:44:50;;;;;;;;;;;;;;;;;;4936841;29;20418;-91
2022/10/13 10:47:22;;;;;;;;;;;;;;;;;;4919559;29;19925;-88
2022/10/13 10:49:48;;;;;;;;;;;;;;;;;;4923960;29;19923;-88
2022/10/13 10:52:25;;;;;;;;;;;;;;;;;;4925836;29;19915;-89
2022/10/13 10:54:55;;;;;;;;;;;;;;;;;;4929087;29;19919;-91
2022/10/13 10:57:24;;;;;;;;;;;;;;;;;;4942973;29;19915;-88
2022/10/13 11:00:08;;;;;;;;;;;;;;;;;;4941722;29;19941;-89
2022/10/13 11:02:42;;;;;;;;;;;;;;;;;;4942870;29;19957;-90
2022/10/13 11:05:07;;;;;;;;;;;;;;;;;;4925861;29;19919;-91
2022/10/13 11:07:33;;;;;;;;;;;;;;;;;;4952625;29;20292;-88
2022/10/13 11:09:58;;;;;;;;;;;;;;;;;;4944804;29;19922;-89
2022/10/13 11:12:24;;;;;;;;;;;;;;;;;;4945008;29;19915;-90
2022/10/13 11:14:53;;;;;;;;;;;;;;;;;;4945053;28;19918;-88
2022/10/13 11:17:28;;;;;;;;;;;;;;;;;;4961918;28;19914;-90
2022/10/13 11:19:53;;;;;;;;;;;;;;;;;;4961852;29;19925;-87
2022/10/13 11:22:28;;;;;;;;;;;;;;;;;;4944654;29;19914;-89
2022/10/13 11:24:58;;;;;;;;;;;;;;;;;;4961750;29;19919;-89
2022/10/13 11:27:26;;;;;;;;;;;;;;;;;;4960394;28;19919;-88
2022/10/13 11:29:53;;;;;;;;;;;;;;;;;;4961763;28;19923;-89
2022/10/13 11:32:25;;;;;;;;;;;;;;;;;;4960307;28;19919;-89
2022/10/13 11:35:08;;;;;;;;;;;;;;;;;;4939616;29;19930;-88
2022/10/13 11:37:46;;;;;;;;;;;;;;;;;;4944737;29;19929;-88
2022/10/13 11:40:24;;;;;;;;;;;;;;;;;;4944407;29;20285;-88
2022/10/13 11:42:56;;;;;;;;;;;;;;;;;;4944724;29;19968;-89
2022/10/13 11:45:21;;;;;;;;;;;;;;;;;;4961606;28;19922;-87
2022/10/13 11:47:52;;;;;;;;;;;;;;;;;;4944286;29;19925;-89
2022/10/13 11:50:27;;;;;;;;;;;;;;;;;;4960584;28;19973;-89
2022/10/13 11:53:17;;;;;;;;;;;;;;;;;;4945580;28;19965;-89
2022/10/13 11:55:45;;;;;;;;;;;;;;;;;;5208118;23;19926;-90
2022/10/13 11:58:21;;;;;;;;;;;;;;;;;;4962129;28;19978;-89
2022/10/13 12:00:53;;;;;;;;;;;;;;;;;;4958123;28;19919;-88
2022/10/13 12:03:20;;;;;;;;;;;;;;;;;;4956089;29;19977;-89
2022/10/13 12:05:47;;;;;;;;;;;;;;;;;;4970367;29;19946;-89
2022/10/13 12:08:12;;;;;;;;;;;;;;;;;;4961563;29;19918;-88
2022/10/13 12:10:38;;;;;;;;;;;;;;;;;;4942491;29;19926;-89
2022/10/13 12:13:03;;;;;;;;;;;;;;;;;;4942053;29;19918;-89
2022/10/13 12:15:30;;;;;;;;;;;;;;;;;;4958487;29;20263;-87
2022/10/13 12:17:56;;;;;;;;;;;;;;;;;;4958913;29;19918;-89
2022/10/13 12:20:26;;;;;;;;;;;;;;;;;;4958364;29;20285;-89
2022/10/13 12:22:52;;;;;;;;;;;;;;;;;;4941307;29;19927;-87
2022/10/13 12:25:19;;;;;;;;;;;;;;;;;;4939646;29;19923;-88
2022/10/13 12:27:46;;;;;;;;;;;;;;;;;;4940716;29;19922;-88
2022/10/13 12:30:22;;;;;;;;;;;;;;;;;;4950467;29;20502;-89
2022/10/13 12:32:49;;;;;;;;;;;;;;;;;;4958090;28;19918;-90
2022/10/13 12:35:18;;;;;;;;;;;;;;;;;;4949640;29;19923;-91
2022/10/13 12:37:44;;;;;;;;;;;;;;;;;;4938849;29;19918;-90
2022/10/13 12:40:13;;;;;;;;;;;;;;;;;;4921806;29;20017;-88
2022/10/13 12:42:38;;;;;;;;;;;;;;;;;;4941926;29;19923;-89
2022/10/13 12:45:05;;;;;;;;;;;;;;;;;;4934117;29;19929;-87
2022/10/13 12:47:38;;;;;;;;;;;;;;;;;;4948964;28;19973;-86
2022/10/13 12:50:22;;;;;;;;;;;;;;;;;;4957403;29;20374;-88
2022/10/13 12:52:49;;;;;;;;;;;;;;;;;;4940218;29;19921;-89
2022/10/13 12:55:18;;;;;;;;;;;;;;;;;;4941299;29;19923;-91
2022/10/13 12:57:45;;;;;;;;;;;;;;;;;;4939740;29;19930;-89
2022/10/13 13:00:16;;;;;;;;;;;;;;;;;;4929117;29;20393;-88
2022/10/13 13:02:48;;;;;;;;;;;;;;;;;;4947101;29;19925;-89
2022/10/13 13:05:33;;;;;;;;;;;;;;;;;;4932598;29;20282;-87
2022/10/13 13:08:00;;;;;;;;;;;;;;;;;;4936894;29;20010;-86
2022/10/13 13:10:26;;;;;;;;;;;;;;;;;;4920232;29;19927;-88
2022/10/13 13:12:53;;;;;;;;;;;;;;;;;;4921450;29;19961;-87
2022/10/13 13:15:33;;;;;;;;;;;;;;;;;;4921084;29;19919;-87
2022/10/13 13:18:17;;;;;;;;;;;;;;;;;;4930998;29;20017;-87
2022/10/13 13:20:43;;;;;;;;;;;;;;;;;;4955219;29;19918;-88
2022/10/13 13:23:08;;;;;;;;;;;;;;;;;;4955448;29;19986;-88
2022/10/13 13:25:33;;;;;;;;;;;;;;;;;;4955800;29;20274;-87
2022/10/13 13:28:02;;;;;;;;;;;;;;;;;;4955227;28;20309;-89
2022/10/13 13:30:27;;;;;;;;;;;;;;;;;;4955479;29;19954;-88
2022/10/13 13:32:53;;;;;;;;;;;;;;;;;;4956814;28;20403;-87
2022/10/13 13:35:18;;;;;;;;;;;;;;;;;;4960671;29;20293;-89
2022/10/13 13:37:48;;;;;;;;;;;;;;;;;;4957463;29;19982;-86
2022/10/13 13:40:18;;;;;;;;;;;;;;;;;;4939857;29;20029;-89
2022/10/13 13:42:43;;;;;;;;;;;;;;;;;;4956896;28;19942;-88
2022/10/13 13:45:12;;;;;;;;;;;;;;;;;;4976246;28;19922;-87
2022/10/13 13:47:38;;;;;;;;;;;;;;;;;;4959299;29;19925;-88
2022/10/13 13:50:09;;;;;;;;;;;;;;;;;;4971855;28;19918;-88
2022/10/13 13:52:34;;;;;;;;;;;;;;;;;;4974841;28;19922;-87
2022/10/13 13:54:59;;;;;;;;;;;;;;;;;;4962302;28;20365;-88
2022/10/13 13:57:25;;;;;;;;;;;;;;;;;;4956755;28;19927;-87
2022/10/13 13:59:50;;;;;;;;;;;;;;;;;;4940148;29;19918;-86
2022/10/13 14:02:18;;;;;;;;;;;;;;;;;;4939448;29;19915;-87
2022/10/13 14:04:43;;;;;;;;;;;;;;;;;;4956430;28;19925;-88
2022/10/13 14:07:09;;;;;;;;;;;;;;;;;;4939124;29;19918;-86
2022/10/13 14:09:35;;;;;;;;;;;;;;;;;;4939179;29;19923;-87
2022/10/13 14:12:00;;;;;;;;;;;;;;;;;;4939035;29;20436;-87
2022/10/13 14:14:28;;;;;;;;;;;;;;;;;;4956268;29;20033;-88
2022/10/13 14:16:53;;;;;;;;;;;;;;;;;;4939084;29;19991;-86
2022/10/13 14:19:19;;;;;;;;;;;;;;;;;;4934492;29;20024;-86
2022/10/13 14:21:44;;;;;;;;;;;;;;;;;;4939317;29;20333;-87
2022/10/13 14:24:10;;;;;;;;;;;;;;;;;;4955727;28;20291;-87
2022/10/13 14:26:35;;;;;;;;;;;;;;;;;;4938021;29;20021;-86
2022/10/13 14:29:01;;;;;;;;;;;;;;;;;;4938583;29;19918;-87
2022/10/13 14:31:26;;;;;;;;;;;;;;;;;;4955639;29;20297;-88
2022/10/13 14:33:52;;;;;;;;;;;;;;;;;;4955868;28;19925;-86
2022/10/13 14:36:17;;;;;;;;;;;;;;;;;;4932174;29;19923;-87
2022/10/13 14:38:42;;;;;;;;;;;;;;;;;;4954709;29;20016;-87
2022/10/13 14:41:08;;;;;;;;;;;;;;;;;;4938817;29;20011;-91
2022/10/13 14:43:33;;;;;;;;;;;;;;;;;;4955966;28;19946;-87
2022/10/13 14:46:02;;;;;;;;;;;;;;;;;;4955831;28;19954;-87
2022/10/13 14:48:31;;;;;;;;;;;;;;;;;;4955845;29;19918;-87
2022/10/13 14:50:57;;;;;;;;;;;;;;;;;;4954820;29;20456;-87
2022/10/13 14:53:25;;;;;;;;;;;;;;;;;;4955222;28;19966;-86
2022/10/13 14:55:50;;;;;;;;;;;;;;;;;;4955576;28;20445;-86
2022/10/13 14:58:16;;;;;;;;;;;;;;;;;;4938534;29;19970;-86
2022/10/13 15:00:41;;;;;;;;;;;;;;;;;;4954913;29;19989;-89
2022/10/13 15:03:07;;;;;;;;;;;;;;;;;;4938604;29;19919;-89
2022/10/13 15:05:32;;;;;;;;;;;;;;;;;;4938453;29;19934;-87
2022/10/13 15:07:58;;;;;;;;;;;;;;;;;;4938510;29;19989;-87
2022/10/13 15:10:23;;;;;;;;;;;;;;;;;;4955883;28;20362;-87
2022/10/13 15:12:49;;;;;;;;;;;;;;;;;;4938379;29;19926;-87
2022/10/13 15:15:14;;;;;;;;;;;;;;;;;;4938457;29;20005;-86
2022/10/13 15:17:39;;;;;;;;;;;;;;;;;;4938396;29;19954;-86
2022/10/13 15:20:05;;;;;;;;;;;;;;;;;;4938287;29;19929;-87
2022/10/13 15:22:31;;;;;;;;;;;;;;;;;;4938824;29;19918;-88
2022/10/13 15:24:56;;;;;;;;;;;;;;;;;;4939016;29;19919;-88
2022/10/13 15:27:22;;;;;;;;;;;;;;;;;;4938507;29;19919;-86
2022/10/13 15:29:47;;;;;;;;;;;;;;;;;;4955495;29;19926;-88
2022/10/13 15:32:17;;;;;;;;;;;;;;;;;;4955536;28;20374;-86
2022/10/13 15:34:43;;;;;;;;;;;;;;;;;;4938305;29;19918;-88
2022/10/13 15:37:09;;;;;;;;;;;;;;;;;;4936654;29;19919;-86
2022/10/13 15:39:34;;;;;;;;;;;;;;;;;;4940675;29;20286;-89
2022/10/13 15:42:00;;;;;;;;;;;;;;;;;;4958846;28;19923;-89
2022/10/13 15:44:26;;;;;;;;;;;;;;;;;;4958955;28;20267;-86
2022/10/13 15:46:55;;;;;;;;;;;;;;;;;;4958849;29;19920;-86
2022/10/13 15:49:22;;;;;;;;;;;;;;;;;;4957623;29;20375;-86
2022/10/13 15:51:47;;;;;;;;;;;;;;;;;;4957964;28;19923;-86
2022/10/13 15:54:13;;;;;;;;;;;;;;;;;;4940525;29;20358;-86
2022/10/13 15:56:38;;;;;;;;;;;;;;;;;;4967597;28;19914;-86
2022/10/13 15:59:04;;;;;;;;;;;;;;;;;;4967045;29;19987;-86
2022/10/13 16:01:29;;;;;;;;;;;;;;;;;;4965645;29;19918;-88
2022/10/13 16:03:55;;;;;;;;;;;;;;;;;;4963729;29;19938;-88
2022/10/13 16:06:21;;;;;;;;;;;;;;;;;;4965114;29;20066;-91
2022/10/13 16:08:47;;;;;;;;;;;;;;;;;;4934776;29;19926;-87
2022/10/13 16:11:14;;;;;;;;;;;;;;;;;;4932717;29;19918;-88
2022/10/13 16:13:40;;;;;;;;;;;;;;;;;;4935019;29;20369;-91
2022/10/13 16:16:06;;;;;;;;;;;;;;;;;;4943785;28;20091;-89
2022/10/13 16:18:32;;;;;;;;;;;;;;;;;;4945247;28;19926;-89
2022/10/13 16:20:58;;;;;;;;;;;;;;;;;;4947971;28;19977;-91
2022/10/13 16:23:23;;;;;;;;;;;;;;;;;;4939509;29;19923;-90
2022/10/13 16:25:49;;;;;;;;;;;;;;;;;;4958141;29;19918;-89
2022/10/13 16:28:14;;;;;;;;;;;;;;;;;;4941052;29;20016;-89
2022/10/13 16:30:40;;;;;;;;;;;;;;;;;;4958210;28;20350;-88
2022/10/13 16:33:06;;;;;;;;;;;;;;;;;;4941883;29;19922;-89
2022/10/13 16:35:33;;;;;;;;;;;;;;;;;;4942006;29;19975;-88
2022/10/13 16:38:04;;;;;;;;;;;;;;;;;;4960895;28;19926;-88
2022/10/13 16:40:30;;;;;;;;;;;;;;;;;;4958612;28;19974;-89
2022/10/13 16:42:55;;;;;;;;;;;;;;;;;;4940846;29;20370;-87
2022/10/13 16:45:21;;;;;;;;;;;;;;;;;;4952649;28;19953;-89
2022/10/13 16:47:49;;;;;;;;;;;;;;;;;;4955317;28;20465;-89
2022/10/13 16:50:15;;;;;;;;;;;;;;;;;;4957666;28;20017;-89
2022/10/13 16:52:41;;;;;;;;;;;;;;;;;;4940311;29;20349;-86